createdAt,value
2022-11-04T09:22:28.230Z,61.38378906
2022-11-04T09:22:54.156Z,61.44042969
2022-11-04T09:23:50.748Z,61.00683594
2022-11-04T09:24:49.395Z,61.97851563
2022-11-04T09:25:44.000Z,62.01855469
2022-11-04T09:26:57.465Z,63.02246094
2022-11-04T09:41:42.909Z,64.56152344
2022-11-04T10:22:38.876Z,60.109375
2022-11-04T10:23:17.761Z,60.60546875
2022-11-04T10:24:15.081Z,61.43847656
2022-11-04T10:25:13.798Z,62.0625
2022-11-04T10:26:09.050Z,62.98339844
2022-11-04T10:27:06.780Z,63.34765625
2022-11-04T10:28:01.947Z,63.92382813
2022-11-04T10:28:58.472Z,63.94824219
2022-11-04T10:30:00.376Z,64.42285156
2022-11-04T10:30:53.600Z,64.93945313
2022-11-04T10:31:51.978Z,65.09960938
2022-11-04T10:32:48.826Z,65.31347656
2022-11-04T10:33:43.086Z,64.78613281
2022-11-04T10:34:42.354Z,65.29199219
2022-11-04T10:35:36.483Z,65.31640625
2022-11-04T10:36:35.031Z,65.48925781
2022-11-04T10:38:29.035Z,65.03417969
2022-11-04T10:39:24.169Z,64.8828125
2022-11-04T10:40:21.601Z,64.76953125
2022-11-04T10:41:15.616Z,63.48339844
2022-11-04T10:43:12.730Z,63.84179688
2022-11-04T10:44:04.616Z,63.42675781
2022-11-04T10:45:05.474Z,64.75585938
2022-11-04T10:45:57.823Z,64.67382813
2022-11-04T10:46:54.941Z,65.23242188
2022-11-04T10:47:48.360Z,65.76171875
2022-11-04T10:48:49.231Z,66.09570313
2022-11-04T10:49:44.079Z,66.57910156
2022-11-04T10:50:00.466Z,66.57910156
2022-11-04T10:50:21.774Z,66.57910156
2022-11-04T10:50:39.635Z,66.02539063
2022-11-04T10:51:33.623Z,65.34082031
2022-11-04T10:53:26.596Z,65
2022-11-04T10:54:23.564Z,65.87792969
2022-11-04T10:55:23.149Z,66.38671875
2022-11-04T10:56:13.441Z,65.88964844
2022-11-04T10:57:11.934Z,65.77246094
2022-11-04T10:58:50.398Z,65.72558594
2022-11-04T10:59:32.418Z,66.04492188
2022-11-04T11:00:31.859Z,66.484375
2022-11-04T11:01:38.986Z,66.66113281
2022-11-04T11:02:32.994Z,66.875
2022-11-04T11:03:29.599Z,66.3828125
2022-11-04T11:04:29.255Z,65.65820313
2022-11-04T11:05:30.619Z,65.80371094
2022-11-04T11:06:27.761Z,66.56152344
2022-11-04T11:08:33.155Z,67.40332031
2022-11-04T11:09:32.635Z,67.8671875
2022-11-04T11:10:27.884Z,67.05664063
2022-11-04T11:11:27.895Z,66.74316406
2022-11-04T11:13:27.708Z,66.29199219
2022-11-04T11:14:29.684Z,66.0625
2022-11-04T11:15:26.963Z,66.5078125
2022-11-04T11:16:28.494Z,66.54199219
2022-11-04T11:18:27.809Z,64.99609375
2022-11-04T11:19:27.574Z,65.25488281
2022-11-04T11:20:24.075Z,65.91894531
2022-11-04T11:21:25.660Z,65.04394531
2022-11-04T11:23:25.912Z,65.50097656
2022-11-04T11:24:21.291Z,65.70507813
2022-11-04T11:25:20.055Z,65.52246094
2022-11-04T11:26:21.935Z,65.43945313
2022-11-04T11:28:22.823Z,66.10058594
2022-11-04T11:29:18.119Z,66.21289063
2022-11-04T11:30:41.711Z,66.48828125
2022-11-04T11:31:22.086Z,66.48046875
2022-11-04T11:33:25.433Z,65.80664063
2022-11-04T11:34:21.407Z,65.99707031
2022-11-04T11:35:21.565Z,66.61621094
2022-11-04T11:36:17.023Z,66.30957031
2022-11-04T11:38:15.092Z,65.90039063
2022-11-04T11:39:14.221Z,66.09277344
2022-11-04T11:40:09.795Z,66.01269531
2022-11-04T11:41:24.808Z,65.81933594
2022-11-04T11:41:25.934Z,65.81933594
2022-11-04T11:41:29.474Z,65.81933594
2022-11-04T11:43:04.702Z,65.41503906
2022-11-04T11:44:05.983Z,65.609375
2022-11-04T11:45:01.464Z,66.8203125
2022-11-04T11:46:02.172Z,65.9375
2022-11-04T11:46:59.290Z,66.7265625
2022-11-04T11:48:54.070Z,66.1640625
2022-11-04T11:49:54.320Z,66.59375
2022-11-04T11:50:49.894Z,66.91015625
2022-11-04T11:51:51.134Z,66.28515625
2022-11-04T11:52:46.354Z,66.51171875
2022-11-04T11:53:49.608Z,66.32617188
2022-11-04T11:54:42.524Z,66.9609375
2022-11-04T11:55:43.438Z,66.703125
2022-11-04T11:57:06.861Z,66.18261719
2022-11-04T11:57:12.127Z,66.18261719
2022-11-04T11:57:12.711Z,66.18261719
2022-11-04T12:00:39.491Z,65.29296875
2022-11-04T12:01:34.798Z,64.74707031
2022-11-04T12:06:28.780Z,66.17773438
2022-11-04T12:09:31.504Z,66.19042969
2022-11-04T12:09:34.562Z,66.19042969
2022-11-04T12:10:49.192Z,66.62402344
2022-11-04T12:10:49.688Z,66.62402344
2022-11-04T12:10:50.374Z,66.62402344
2022-11-04T12:11:28.115Z,65.27050781
2022-11-04T12:13:24.439Z,64.55371094
2022-11-04T12:13:28.786Z,64.55371094
2022-11-04T12:14:23.267Z,65.11523438
2022-11-04T12:15:21.432Z,66.3125
2022-11-04T12:16:21.754Z,64.63867188
2022-11-04T12:17:18.058Z,64.3828125
2022-11-04T12:18:17.310Z,64.63769531
2022-11-04T12:19:16.201Z,65.23632813
2022-11-04T12:20:15.097Z,66.2890625
2022-11-04T12:21:13.543Z,66.35742188
2022-11-04T12:22:44.699Z,66.4921875
2022-11-04T12:23:24.334Z,66.63769531
2022-11-04T12:24:22.342Z,65.7109375
2022-11-04T12:25:20.677Z,64.640625
2022-11-04T12:26:19.440Z,64.83691406
2022-11-04T12:27:16.675Z,65.81640625
2022-11-04T12:28:16.189Z,66.20410156
2022-11-04T12:29:13.696Z,66.69921875
2022-11-04T12:30:08.324Z,66.81933594
2022-11-04T12:31:08.138Z,66.66992188
2022-11-04T12:33:06.753Z,66.79296875
2022-11-04T12:34:02.910Z,66.95996094
2022-11-04T12:35:01.550Z,66.83496094
2022-11-04T12:35:57.592Z,66.21386719
2022-11-04T12:37:06.414Z,66.5390625
2022-11-04T12:37:59.054Z,66.62890625
2022-11-04T12:38:59.783Z,66.9609375
2022-11-04T12:39:54.971Z,67.00878906
2022-11-04T12:41:27.609Z,66.95507813
2022-11-04T12:41:34.308Z,66.95507813
2022-11-04T12:42:19.398Z,66.40527344
2022-11-04T12:43:50.632Z,66.22460938
2022-11-04T12:44:46.086Z,65.671875
2022-11-04T12:45:48.245Z,65.2421875
2022-11-04T12:46:47.035Z,65.4765625
2022-11-04T12:47:41.523Z,65.67285156
2022-11-04T12:48:37.224Z,65.80761719
2022-11-04T12:49:36.600Z,65.1796875
2022-11-04T12:50:34.485Z,65.40527344
2022-11-04T12:51:29.754Z,65.60742188
2022-11-04T12:54:18.120Z,65.6015625
2022-11-04T12:55:01.693Z,66.10449219
2022-11-04T12:56:00.815Z,66.05175781
2022-11-04T12:57:02.520Z,66.04785156
2022-11-04T12:58:59.833Z,65.46386719
2022-11-04T13:00:09.862Z,65.24902344
2022-11-04T13:01:01.884Z,64.71289063
2022-11-04T13:01:58.568Z,65.08886719
2022-11-04T13:03:04.071Z,65.47070313
2022-11-04T13:03:58.882Z,65.15136719
2022-11-04T13:05:04.764Z,64.67480469
2022-11-04T13:05:59.054Z,65.09960938
2022-11-04T13:07:00.271Z,65.15429688
2022-11-04T13:07:57.346Z,64.53125
2022-11-04T13:08:59.520Z,65.62890625
2022-11-04T13:09:55.938Z,65.79980469
2022-11-04T13:10:59.888Z,65.42675781
2022-11-04T13:11:54.334Z,65.68359375
2022-11-04T13:12:55.846Z,65.94238281
2022-11-04T13:13:55.135Z,66.09960938
2022-11-04T13:14:01.843Z,66.09960938
2022-11-04T13:14:55.266Z,66.26074219
2022-11-04T13:15:51.773Z,66.91796875
2022-11-04T13:16:53.184Z,66.23632813
2022-11-04T13:17:49.713Z,65.83105469
2022-11-04T13:18:56.853Z,65.31640625
2022-11-04T13:19:52.155Z,65.43359375
2022-11-04T13:20:51.881Z,65.41992188
2022-11-04T13:21:52.516Z,66.15332031
2022-11-04T13:23:53.335Z,67.09082031
2022-11-04T13:24:47.246Z,66.93164063
2022-11-04T13:25:51.021Z,66.27734375
2022-11-04T13:26:45.781Z,65.78027344
2022-11-04T13:27:46.286Z,65.87207031
2022-11-04T13:28:42.885Z,66.80957031
2022-11-04T13:29:44.220Z,66.97460938
2022-11-04T13:30:41.355Z,66.94042969
2022-11-04T13:31:41.579Z,67.26464844
2022-11-04T13:32:37.752Z,67.27832031
2022-11-04T13:33:39.123Z,67.34375
2022-11-04T13:34:35.488Z,67.24023438
2022-11-04T13:35:39.713Z,67.79101563
2022-11-04T13:36:35.344Z,67.4765625
2022-11-04T13:36:46.122Z,67.48632813
2022-11-04T13:38:40.792Z,66.921875
2022-11-04T13:39:40.993Z,67.02832031
2022-11-04T13:40:37.280Z,66.7578125
2022-11-04T13:41:41.554Z,66.45117188
2022-11-04T13:43:39.408Z,66.34863281
2022-11-04T13:44:33.815Z,66.47363281
2022-11-04T13:45:37.702Z,67.39257813
2022-11-04T13:48:21.984Z,66.33984375
2022-11-04T13:48:28.585Z,66.48535156
2022-11-04T13:49:29.867Z,66.21191406
2022-11-04T13:50:25.023Z,66.40820313
2022-11-04T13:51:24.991Z,65.45605469
2022-11-04T13:52:20.220Z,65.1015625
2022-11-04T13:53:26.140Z,65.56152344
2022-11-04T13:54:19.390Z,65.16015625
2022-11-04T13:55:19.465Z,65.06933594
2022-11-04T13:56:32.683Z,65.72753906
2022-11-04T13:56:32.830Z,65.72753906
2022-11-04T13:56:33.430Z,65.72753906
2022-11-04T13:57:16.965Z,65.75097656
2022-11-04T13:58:12.989Z,65.01855469
2022-11-04T13:59:11.961Z,65.4921875
2022-11-04T14:00:07.673Z,65.51269531
2022-11-04T14:01:07.684Z,65.49804688
2022-11-04T14:02:03.851Z,66.08203125
2022-11-04T14:03:03.190Z,65.80957031
2022-11-04T14:03:58.384Z,65.74804688
2022-11-04T14:04:57.806Z,66.45898438
2022-11-04T14:05:54.723Z,66.55761719
2022-11-04T14:06:54.473Z,66.85839844
2022-11-04T14:07:49.304Z,67.20800781
2022-11-04T14:08:52.648Z,66.55957031
2022-11-04T14:09:45.960Z,66.36425781
2022-11-04T14:10:47.150Z,66.28515625
2022-11-04T14:11:42.728Z,66.26269531
2022-11-04T14:13:41.469Z,66.11230469
2022-11-04T14:14:37.513Z,66.35742188
2022-11-04T14:15:37.495Z,66.9140625
2022-11-04T14:16:35.274Z,67.47558594
2022-11-04T14:18:33.405Z,68.22949219
2022-11-04T14:19:32.558Z,68.25195313
2022-11-04T14:20:27.349Z,67.79882813
2022-11-04T14:21:25.732Z,67.61816406
2022-11-04T14:23:12.702Z,67.25292969
2022-11-04T14:23:53.934Z,67.40625
2022-11-04T14:24:53.322Z,68.32421875
2022-11-04T14:25:54.829Z,67.16015625
2022-11-04T14:26:52.096Z,66.94238281
2022-11-04T14:28:53.995Z,67.84082031
2022-11-04T14:29:55.117Z,68.22265625
2022-11-04T14:30:51.504Z,68.53417969
2022-11-04T14:31:56.615Z,68.52148438
2022-11-04T14:33:53.677Z,68.22558594
2022-11-04T14:34:50.154Z,68.55175781
2022-11-04T14:35:51.627Z,68.68554688
2022-11-04T14:36:55.091Z,68.34375
2022-11-04T14:38:53.323Z,68.36621094
2022-11-04T14:39:49.544Z,68.76464844
2022-11-04T14:40:53.025Z,68.81835938
2022-11-04T14:41:49.686Z,68.56933594
2022-11-04T14:42:51.000Z,69.05566406
2022-11-04T14:43:47.920Z,69.37792969
2022-11-04T14:44:50.191Z,69.07324219
2022-11-04T14:45:45.966Z,69.5
2022-11-04T14:46:47.099Z,69.43945313
2022-11-04T14:47:43.457Z,69.30761719
2022-11-04T14:48:44.546Z,69.03222656
2022-11-04T14:49:40.697Z,69.26953125
2022-11-04T14:50:45.503Z,68.62304688
2022-11-04T14:51:40.683Z,69.09570313
2022-11-04T14:53:40.483Z,68.63867188
2022-11-04T14:54:43.023Z,68.546875
2022-11-04T14:55:41.280Z,68.79589844
2022-11-04T14:56:41.328Z,68.78320313
2022-11-04T14:58:41.896Z,69.43457031
2022-11-04T14:59:43.123Z,69.57910156
2022-11-04T15:00:42.160Z,69.30761719
2022-11-04T15:01:39.976Z,69.49511719
2022-11-04T15:02:40.601Z,68.68359375
2022-11-04T15:04:10.600Z,68.78417969
2022-11-04T15:04:11.771Z,68.78417969
2022-11-04T15:04:43.864Z,68.65039063
2022-11-04T15:05:50.758Z,68.08007813
2022-11-04T15:06:54.997Z,67.9375
2022-11-04T15:06:55.220Z,67.9375
2022-11-04T15:08:43.471Z,68.45507813
2022-11-04T15:09:40.771Z,68.2265625
2022-11-04T15:10:44.234Z,67.61230469
2022-11-04T15:11:44.936Z,67.81445313
2022-11-04T15:13:48.775Z,66.27636719
2022-11-04T15:14:45.472Z,66.71191406
2022-11-04T15:15:53.308Z,67.26367188
2022-11-04T15:16:48.657Z,65.72753906
2022-11-04T15:20:54.156Z,64.41015625
2022-11-04T15:21:21.984Z,63.80371094
2022-11-04T15:23:15.363Z,63.15429688
2022-11-04T15:24:16.962Z,63.8515625
2022-11-04T15:25:10.772Z,64.27148438
2022-11-04T15:26:09.511Z,64.69335938
2022-11-04T15:27:09.355Z,64.984375
2022-11-04T15:29:06.180Z,65.7109375
2022-11-04T15:30:03.190Z,65.36328125
2022-11-04T15:30:57.869Z,66.01171875
2022-11-04T15:31:55.349Z,66.09765625
2022-11-04T15:33:52.707Z,66.60058594
2022-11-04T15:34:55.774Z,66.25878906
2022-11-04T15:35:54.143Z,66.4453125
2022-11-04T15:36:58.665Z,66.36425781
2022-11-04T15:37:49.348Z,66.02148438
2022-11-04T15:38:47.420Z,66.37890625
2022-11-04T15:39:41.906Z,66.66601563
2022-11-04T15:40:40.102Z,66.52539063
2022-11-04T15:41:38.332Z,66.71191406
2022-11-04T15:43:30.103Z,67.96289063
2022-11-04T15:44:35.066Z,67.53027344
2022-11-04T15:45:28.867Z,67.36816406
2022-11-04T15:46:26.927Z,67.29785156
2022-11-04T15:48:19.628Z,67.83496094
2022-11-04T15:49:13.696Z,67.80761719
2022-11-04T15:50:12.306Z,68.04296875
2022-11-04T15:51:06.136Z,68.51660156
2022-11-04T15:52:10.056Z,67.98046875
2022-11-04T15:54:06.591Z,68.94824219
2022-11-04T15:55:07.750Z,68.89160156
2022-11-04T15:55:59.687Z,68.68457031
2022-11-04T15:57:03.290Z,68.43554688
2022-11-04T15:57:56.240Z,68.21972656
2022-11-04T15:59:00.407Z,68.35253906
2022-11-04T15:59:51.888Z,68.57519531
2022-11-04T16:00:49.514Z,68.63085938
2022-11-04T16:01:43.532Z,68.84472656
2022-11-04T16:05:41.177Z,66.49902344
2022-11-04T16:06:21.061Z,65.98046875
2022-11-04T16:08:22.792Z,66.24609375
2022-11-04T16:09:16.591Z,66.34570313
2022-11-04T16:10:15.624Z,66.86425781
2022-11-04T16:11:11.937Z,66.51171875
2022-11-04T16:12:10.562Z,66.71972656
2022-11-04T16:13:06.115Z,66.81445313
2022-11-04T16:14:08.776Z,67.32324219
2022-11-04T16:15:07.980Z,67.63085938
2022-11-04T16:16:03.880Z,67.97949219
2022-11-04T16:17:05.152Z,67.73535156
2022-11-04T16:18:07.033Z,68.43457031
2022-11-04T16:19:07.142Z,67.72851563
2022-11-04T16:20:02.540Z,68.30175781
2022-11-04T16:21:00.660Z,68.52050781
2022-11-04T16:21:55.044Z,68.51464844
2022-11-04T16:23:49.833Z,68.90136719
2022-11-04T16:24:46.948Z,69.13378906
2022-11-04T16:25:40.398Z,69.1875
2022-11-04T16:26:38.459Z,69.1640625
2022-11-04T16:28:32.284Z,69.64160156
2022-11-04T16:29:34.661Z,69.75292969
2022-11-04T16:30:26.226Z,69.38964844
2022-11-04T16:31:34.329Z,69.53320313
2022-11-04T16:32:25.698Z,69.546875
2022-11-04T16:33:21.242Z,69.59472656
2022-11-04T16:34:22.212Z,69.66015625
2022-11-04T16:35:13.565Z,69.49023438
2022-11-04T16:36:12.449Z,69.71777344
2022-11-04T16:38:27.551Z,68.95605469
2022-11-04T16:39:14.772Z,68.28027344
2022-11-04T16:40:14.515Z,68.34667969
2022-11-04T16:41:16.708Z,68.65625
2022-11-04T16:43:13.825Z,69.26660156
2022-11-04T16:44:09.980Z,68.35253906
2022-11-04T16:45:10.434Z,68.41308594
2022-11-04T16:46:09.976Z,68.83691406
2022-11-04T16:47:11.280Z,68.9765625
2022-11-04T16:48:04.708Z,69.56835938
2022-11-04T16:49:02.964Z,69.61035156
2022-11-04T16:49:56.879Z,69.53613281
2022-11-04T16:50:58.807Z,69.65527344
2022-11-04T16:51:54.686Z,69.59472656
2022-11-04T16:53:52.818Z,69.87207031
2022-11-04T16:54:58.073Z,70.16503906
2022-11-04T16:55:50.634Z,70.28613281
2022-11-04T16:56:53.091Z,70.05664063
2022-11-04T16:58:50.916Z,70.22265625
2022-11-04T16:59:46.005Z,70.10449219
2022-11-04T17:00:42.900Z,70.12304688
2022-11-04T17:01:50.125Z,69.93847656
2022-11-04T17:03:37.171Z,70.34765625
2022-11-04T17:04:45.065Z,70.15527344
2022-11-04T17:05:38.262Z,70.046875
2022-11-04T17:06:43.668Z,70.01855469
2022-11-04T17:08:39.038Z,70.39453125
2022-11-04T17:09:37.806Z,69.93359375
2022-11-04T17:10:32.032Z,69.87109375
2022-11-04T17:11:32.398Z,69.76464844
2022-11-04T17:13:25.291Z,70.0390625
2022-11-04T17:14:20.645Z,70.17089844
2022-11-04T17:15:19.317Z,70.10644531
2022-11-04T17:16:13.988Z,70.34863281
2022-11-04T17:18:00.808Z,70.36914063
2022-11-04T17:18:42.137Z,70.20800781
2022-11-04T17:19:44.038Z,70.15332031
2022-11-04T17:20:42.822Z,70.20507813
2022-11-04T17:21:44.100Z,70.70703125
2022-11-04T17:23:48.397Z,70.78613281
2022-11-04T17:24:44.774Z,70.93945313
2022-11-04T17:25:45.464Z,71.14746094
2022-11-04T17:26:44.525Z,70.94042969
2022-11-04T17:27:47.998Z,71.08691406
2022-11-04T17:28:48.582Z,71.3046875
2022-11-04T17:29:48.167Z,71.29785156
2022-11-04T17:30:51.879Z,71.37304688
2022-11-04T17:31:47.031Z,71.75585938
2022-11-04T17:33:52.409Z,71.80078125
2022-11-04T17:34:46.794Z,71.83203125
2022-11-04T17:35:51.379Z,71.6953125
2022-11-04T17:36:46.803Z,71.87402344
2022-11-04T17:38:45.630Z,71.73925781
2022-11-04T17:39:47.882Z,71.62695313
2022-11-04T17:40:48.316Z,71.70019531
2022-11-04T17:41:49.128Z,71.76464844
2022-11-04T17:42:51.696Z,71.9140625
2022-11-04T17:43:47.835Z,72.16308594
2022-11-04T17:44:53.127Z,72.3515625
2022-11-04T17:45:53.626Z,72.54003906
2022-11-04T17:46:49.649Z,72.34765625
2022-11-04T17:47:52.990Z,72.34765625
2022-11-04T17:48:52.204Z,72.01953125
2022-11-04T17:49:53.899Z,72.05859375
2022-11-04T17:50:54.154Z,71.95019531
2022-11-04T17:51:54.848Z,71.28222656
2022-11-04T17:53:09.211Z,71.63085938
2022-11-04T17:54:06.388Z,71.65625
2022-11-04T17:55:16.351Z,71.62207031
2022-11-04T17:55:17.962Z,71.62207031
2022-11-04T17:56:09.746Z,71.82617188
2022-11-04T17:57:10.958Z,71.88671875
2022-11-04T17:59:14.322Z,72.12304688
2022-11-04T18:00:13.730Z,72.44433594
2022-11-04T18:01:49.793Z,72.28027344
2022-11-04T18:03:48.148Z,71.65527344
2022-11-04T18:04:34.372Z,71.87109375
2022-11-04T18:05:31.185Z,71.70117188
2022-11-04T18:06:29.065Z,71.27148438
2022-11-04T18:08:36.323Z,71.32421875
2022-11-04T18:09:35.855Z,71.31640625
2022-11-04T18:10:34.958Z,71.05859375
2022-11-04T18:11:37.295Z,71.25683594
2022-11-04T18:13:42.563Z,71.71386719
2022-11-04T18:14:44.240Z,71.57226563
2022-11-04T18:15:41.142Z,71.77734375
2022-11-04T18:16:46.096Z,71.87207031
2022-11-04T18:17:48.430Z,71.890625
2022-11-04T18:18:48.267Z,72.00683594
2022-11-04T18:19:47.859Z,72.24414063
2022-11-04T18:20:53.764Z,72.36230469
2022-11-04T18:21:49.660Z,72.20117188
2022-11-04T18:23:52.194Z,72.38085938
2022-11-04T18:24:53.395Z,72.66699219
2022-11-04T18:25:58.162Z,72.48339844
2022-11-04T18:27:45.026Z,72.56054688
2022-11-04T18:28:24.992Z,72.26464844
2022-11-04T18:29:26.114Z,72.16894531
2022-11-04T18:30:24.288Z,72.4375
2022-11-04T18:31:24.914Z,71.97753906
2022-11-04T18:33:25.579Z,72.35253906
2022-11-04T18:34:25.723Z,72.64160156
2022-11-04T18:35:21.116Z,72.89453125
2022-11-04T18:36:23.521Z,73.06152344
2022-11-04T18:37:17.645Z,73.02929688
2022-11-04T18:39:14.073Z,73.28125
2022-11-04T18:40:14.208Z,73.16796875
2022-11-04T18:41:12.157Z,73.30957031
2022-11-04T18:42:17.264Z,73.27246094
2022-11-04T18:44:10.206Z,73.00292969
2022-11-04T18:45:05.627Z,72.8671875
2022-11-04T18:46:10.864Z,72.703125
2022-11-04T18:47:14.769Z,72.859375
2022-11-04T18:48:21.312Z,72.82421875
2022-11-04T18:49:18.669Z,73.23144531
2022-11-04T18:50:18.839Z,73.30566406
2022-11-04T18:51:13.138Z,73.16796875
2022-11-04T18:52:18.139Z,73.18847656
2022-11-04T18:53:12.616Z,73.51757813
2022-11-04T18:54:17.942Z,73.03515625
2022-11-04T18:55:23.983Z,72.90820313
2022-11-04T18:56:23.297Z,72.79296875
2022-11-04T18:57:21.483Z,72.86035156
2022-11-04T18:58:21.762Z,72.56347656
2022-11-04T18:59:16.473Z,72.58789063
2022-11-04T19:00:21.329Z,72.95507813
2022-11-04T19:01:15.878Z,72.81640625
2022-11-04T19:02:18.781Z,72.80566406
2022-11-04T19:03:12.661Z,72.85742188
2022-11-04T19:04:12.356Z,73.34765625
2022-11-04T19:05:10.135Z,73.20800781
2022-11-04T19:06:07.622Z,73.13769531
2022-11-04T19:07:08.987Z,72.9453125
2022-11-04T19:09:40.248Z,73.23535156
2022-11-04T19:10:07.515Z,73.09960938
2022-11-04T19:11:04.828Z,73.03515625
2022-11-04T19:11:59.575Z,72.62304688
2022-11-04T19:13:56.904Z,73.05761719
2022-11-04T19:15:26.357Z,73.52929688
2022-11-04T19:16:09.198Z,73.3046875
2022-11-04T19:17:11.280Z,73.12890625
2022-11-04T19:19:07.416Z,73.44628906
2022-11-04T19:20:12.099Z,73.66894531
2022-11-04T19:21:04.267Z,73.63085938
2022-11-04T19:22:04.878Z,73.5078125
2022-11-04T19:23:03.956Z,73.63378906
2022-11-04T19:24:03.790Z,73.6875
2022-11-04T19:25:00.386Z,73.75292969
2022-11-04T19:26:02.862Z,73.96191406
2022-11-04T19:27:02.053Z,73.8046875
2022-11-04T19:29:00.546Z,74.07617188
2022-11-04T19:30:07.575Z,73.66015625
2022-11-04T19:31:02.468Z,73.72167969
2022-11-04T19:32:06.282Z,73.3359375
2022-11-04T19:33:03.330Z,73.17480469
2022-11-04T19:33:58.855Z,72.94238281
2022-11-04T19:35:02.451Z,73.22851563
2022-11-04T19:35:57.605Z,73.22363281
2022-11-04T19:36:58.320Z,73.07324219
2022-11-04T19:38:52.017Z,73.01269531
2022-11-04T19:39:54.733Z,73.03222656
2022-11-04T19:40:52.093Z,73.18359375
2022-11-04T19:41:55.567Z,73.26855469
2022-11-04T19:42:52.980Z,73.43554688
2022-11-04T19:43:54.063Z,73.47753906
2022-11-04T19:44:52.838Z,73.80859375
2022-11-04T19:45:59.976Z,73.953125
2022-11-04T19:46:04.381Z,73.953125
2022-11-04T19:47:04.035Z,73.60644531
2022-11-04T19:49:03.895Z,73.58398438
2022-11-04T19:50:01.088Z,73.92871094
2022-11-04T19:51:03.200Z,73.82519531
2022-11-04T19:52:02.427Z,73.453125
2022-11-04T19:53:10.414Z,73.43847656
2022-11-04T19:53:54.870Z,73.50390625
2022-11-04T19:54:56.039Z,73.6484375
2022-11-04T19:55:48.529Z,73.76074219
2022-11-04T19:56:50.969Z,73.62597656
2022-11-04T19:57:47.027Z,73.67480469
2022-11-04T19:58:52.441Z,73.63867188
2022-11-04T19:59:46.725Z,73.61621094
2022-11-04T20:00:49.229Z,73.70117188
2022-11-04T20:01:41.827Z,73.83789063
2022-11-04T20:02:45.511Z,73.45898438
2022-11-04T20:03:44.701Z,73.65917969
2022-11-04T20:04:44.975Z,73.7578125
2022-11-04T20:06:24.984Z,73.24121094
2022-11-04T20:08:10.182Z,71.86425781
2022-11-04T20:08:50.792Z,71.53710938
2022-11-04T20:09:56.538Z,71.70117188
2022-11-04T20:10:59.807Z,71.7265625
2022-11-04T20:11:59.620Z,71.80761719
2022-11-04T20:13:55.392Z,71.75097656
2022-11-04T20:15:01.239Z,72.16308594
2022-11-04T20:15:57.629Z,72.06152344
2022-11-04T20:16:53.152Z,72.46777344
2022-11-04T20:18:49.087Z,73.05761719
2022-11-04T20:19:49.702Z,73.30859375
2022-11-04T20:20:46.163Z,73.59472656
2022-11-04T20:21:45.698Z,73.48535156
2022-11-04T20:23:43.482Z,74.1328125
2022-11-04T20:24:43.857Z,74.40917969
2022-11-04T20:25:44.042Z,74.44921875
2022-11-04T20:26:46.329Z,74.47949219
2022-11-04T20:28:40.450Z,74.60742188
2022-11-04T20:29:38.711Z,74.57617188
2022-11-04T20:30:38.577Z,74.52734375
2022-11-04T20:31:40.529Z,74.52148438
2022-11-04T20:32:35.493Z,74.28613281
2022-11-04T20:33:33.694Z,74.18652344
2022-11-04T20:34:33.118Z,74.36621094
2022-11-04T20:35:33.654Z,74.42773438
2022-11-04T20:36:29.990Z,74.54785156
2022-11-04T20:38:26.740Z,74.67773438
2022-11-04T20:39:26.528Z,74.40722656
2022-11-04T20:40:25.586Z,74.57519531
2022-11-04T20:41:21.839Z,74.35546875
2022-11-04T20:43:21.480Z,74.68066406
2022-11-04T20:44:25.131Z,74.79882813
2022-11-04T20:45:22.024Z,74.77148438
2022-11-04T20:46:21.771Z,74.75683594
2022-11-04T20:47:24.284Z,75.04199219
2022-11-04T20:49:23.095Z,74.83398438
2022-11-04T20:50:28.385Z,75.2109375
2022-11-04T20:51:31.327Z,75.04882813
2022-11-04T20:53:33.068Z,75.44140625
2022-11-04T20:54:35.513Z,75.38085938
2022-11-04T20:55:30.828Z,75.62597656
2022-11-04T20:56:34.528Z,75.77734375
2022-11-04T20:57:27.046Z,75.8828125
2022-11-04T21:00:07.067Z,75.55664063
2022-11-04T21:00:57.765Z,75.57617188
2022-11-04T21:01:52.450Z,75.50292969
2022-11-04T21:03:53.897Z,75.88867188
2022-11-04T21:04:50.166Z,75.75878906
2022-11-04T21:05:52.845Z,75.62011719
2022-11-04T21:06:52.374Z,75.74707031
2022-11-04T21:08:54.091Z,75.87792969
2022-11-04T21:09:51.822Z,75.89257813
2022-11-04T21:10:48.394Z,75.94726563
2022-11-04T21:11:52.964Z,75.83203125
2022-11-04T21:13:49.318Z,76.23046875
2022-11-04T21:14:50.922Z,76.39746094
2022-11-04T21:15:54.063Z,76.58300781
2022-11-04T21:16:47.904Z,76.42285156
2022-11-04T21:17:50.885Z,76.43847656
2022-11-04T21:18:47.450Z,76.66992188
2022-11-04T21:19:44.075Z,76.71484375
2022-11-04T21:20:48.426Z,76.80175781
2022-11-04T21:21:42.825Z,76.85546875
2022-11-04T21:22:44.775Z,76.88964844
2022-11-04T21:23:40.883Z,76.99902344
2022-11-04T21:24:45.081Z,77.05761719
2022-11-04T21:25:40.794Z,77.08691406
2022-11-04T21:26:43.986Z,77.25390625
2022-11-04T21:27:37.869Z,76.98925781
2022-11-04T21:28:41.827Z,77.29394531
2022-11-04T21:29:39.911Z,77.34472656
2022-11-04T21:30:38.955Z,77.4140625
2022-11-04T21:31:43.105Z,77.22460938
2022-11-04T21:32:41.536Z,77.171875
2022-11-04T21:33:40.671Z,77.18164063
2022-11-04T21:34:37.085Z,77.3359375
2022-11-04T21:35:42.199Z,77.12109375
2022-11-04T21:36:41.467Z,77.17871094
2022-11-04T21:38:40.788Z,77.42675781
2022-11-04T21:40:32.658Z,77.28222656
2022-11-04T21:41:14.499Z,77.11035156
2022-11-04T21:42:13.816Z,76.91308594
2022-11-04T21:44:07.232Z,76.78808594
2022-11-04T21:45:06.630Z,76.83984375
2022-11-04T21:46:04.201Z,77.00292969
2022-11-04T21:47:04.192Z,76.79785156
2022-11-04T21:48:03.515Z,77.08203125
2022-11-04T21:48:59.724Z,77.14257813
2022-11-04T21:50:00.331Z,77.28417969
2022-11-04T21:50:55.642Z,77.34960938
2022-11-04T21:51:54.602Z,77.31640625
2022-11-04T21:52:49.798Z,77.25
2022-11-04T21:53:56.162Z,77.11230469
2022-11-04T21:54:51.583Z,77.04394531
2022-11-04T21:55:49.236Z,77.36621094
2022-11-04T21:56:49.776Z,77.19628906
2022-11-04T21:58:48.597Z,76.80371094
2022-11-04T21:59:41.049Z,77.07226563
2022-11-04T22:00:38.802Z,76.90722656
2022-11-04T22:01:37.047Z,76.74414063
2022-11-04T22:03:38.529Z,76.89160156
2022-11-04T22:04:32.721Z,76.55175781
2022-11-04T22:05:36.025Z,76.38867188
2022-11-04T22:06:34.042Z,76.44433594
2022-11-04T22:06:35.749Z,76.44433594
2022-11-04T22:07:29.406Z,76.42480469
2022-11-04T22:08:28.835Z,76.4140625
2022-11-04T22:09:37.032Z,76.234375
2022-11-04T22:10:32.430Z,76.15136719
2022-11-04T22:11:35.671Z,76.16699219
2022-11-04T22:13:30.972Z,76.00195313
2022-11-04T22:14:28.254Z,75.79980469